Adana, Turkey

11:20 AM EEST on July 28, 2014 (GMT +0300)
Adana (LTAF) Elev 66 ft | 36.98 °N, 35.30 °E | Change Station

Current weather conditions updated 30 minutes ago

Scattered Clouds
Scattered Clouds
88 °F
Feels Like 93 °F
N
4
Wind Variable Wind from Variable

Today is forecast to be Warmer than yesterday.

Today
High -- | Low -- °F
--% Chance of Precip.
Yesterday
High -- | Low -- °F
Precip. -- in
5:40 AM 7:49 PM
New Moon, 2% visible
Pressure 29.86 in
Visibility 6.2 miles
Clouds Scattered Clouds 4000 ft
Heat Index 93 °F
Dew Point 70 °F
Humidity 55%
Rainfall 0.00 in
Snow Depth Not available.
UV 8 out of 12
Pollen Not available.
Air Quality Not available.
Flu Activity Not available.
METAR LTAF 280750Z VRB03KT 9999 SCT040 31/21 Q1011 NOSIG RMK RWY23 18004KT 080V220

More Conditions Fewer Conditions

Pressure 29.86 in
Visibility 6.2 miles
Clouds Scattered Clouds 4000 ft
Heat Index 93 °F
Dew Point 70 °F
Humidity 55%
Rainfall 0.00 in
Snow Depth Not available.
UV 8 out of 12
Pollen Not available.
Air Quality Not available.
Flu Activity Not available.
METAR LTAF 280750Z VRB03KT 9999 SCT040 31/21 Q1011 NOSIG RMK RWY23 18004KT 080V220

More Conditions Fewer Conditions

10-Day Weather Forecast

Almanac

Astronomy

Jul. 28, 2014 Rise Set
Actual Time 5:40 AM EEST 7:49 PM EEST
Civil Twilight 5:11 AM EEST 8:18 PM EEST
Nautical Twilight 4:35 AM EEST 8:53 PM EEST
Astronomical Twilight 3:57 AM EEST 9:32 PM EEST
Moon 6:59 AM EEST 8:24 PM EEST
Length of Visible Light 15h 07m
Length of Day
14h 09m
Tomorrow will be 1m 39s shorter.
New Moon, 2% of the Moon is Illuminated
Today
New Moon
Aug 3
First Quarter
Aug 10
Full
Aug 17
Last Quarter
Aug 25
New

Yesterday's Extremes

Country Highs Country Lows

Community

WunderPhotos

Upload Photos

1,738,294 photos uploaded!

Nearby

Snow Depth

Not available.

Earthquake Activity

City Distance Mag. Time & Date
No recent earthquake activity has been reported nearby.
Minimum magnitude displayed is 2.5.

Coastal Water Temperatures

Place Temperature
No Stations Reporting

Nearby Weather Stations

There are no personal weather stations in this area.